createdAt,value
2018-03-19T00:17:34.122Z,70.01
2018-03-19T00:32:34.922Z,72.48
2018-03-19T00:47:40.090Z,75.84
2018-03-19T01:02:37.434Z,76.05
2018-03-19T01:17:36.413Z,76.56
2018-03-19T01:32:34.137Z,76.89
2018-03-19T01:47:34.202Z,80.08
2018-03-19T02:02:36.751Z,81.45
2018-03-19T02:17:34.422Z,81.62
2018-03-19T02:32:36.607Z,81.47
2018-03-19T03:02:36.937Z,81.59
2018-03-19T03:17:36.375Z,81.76
2018-03-19T03:32:34.655Z,80.96
2018-03-19T03:47:34.770Z,80.80
2018-03-19T04:02:36.168Z,79.51
2018-03-19T04:17:33.897Z,78.90
2018-03-19T04:32:34.894Z,80.35
2018-03-19T04:47:35.042Z,80.58
2018-03-19T05:02:34.474Z,91.33
2018-03-19T05:17:35.405Z,79.13
2018-03-19T05:32:34.317Z,79.92
2018-03-19T05:47:34.128Z,80.29
2018-03-19T06:02:36.706Z,80.15
2018-03-19T06:17:34.618Z,79.92
2018-03-19T06:32:34.378Z,81.83
2018-03-19T06:47:34.600Z,82.75
2018-03-19T07:32:36.958Z,77.28
2018-03-19T07:47:39.143Z,73.68
2018-03-19T08:02:50.516Z,72.21
2018-03-19T08:17:37.385Z,70.23
2018-03-19T08:32:35.080Z,69.18
2018-03-19T08:47:35.273Z,69.00
2018-03-19T09:02:37.665Z,67.98
2018-03-19T09:17:35.589Z,65.90
2018-03-19T09:47:36.378Z,65.81
2018-03-19T10:02:38.459Z,65.94
2018-03-19T10:17:36.759Z,66.67
2018-03-19T10:32:37.646Z,66.37
2018-03-19T10:47:36.592Z,67.17
2018-03-19T11:02:52.718Z,67.14
2018-03-19T11:17:35.989Z,66.72
2018-03-19T11:32:34.764Z,67.16
2018-03-19T13:17:34.402Z,77.13
2018-03-19T13:32:34.355Z,78.16
2018-03-19T13:47:36.271Z,77.14
2018-03-19T14:02:35.267Z,77.66
2018-03-19T14:17:34.696Z,80.50
2018-03-19T14:32:36.672Z,82.56
2018-03-19T15:17:34.989Z,85.01
2018-03-19T15:32:35.882Z,86.18
2018-03-19T15:47:34.898Z,87.38
2018-03-19T16:02:34.141Z,86.62
2018-03-19T16:17:34.129Z,86.91
2018-03-19T16:32:35.079Z,86.95
2018-03-19T17:02:38.284Z,86.27
2018-03-19T17:17:33.810Z,86.31
2018-03-19T17:32:35.385Z,86.78
2018-03-19T17:47:36.834Z,88.02
2018-03-19T18:02:34.762Z,87.80
2018-03-19T18:17:37.918Z,87.19
2018-03-19T18:32:34.571Z,86.13
2018-03-19T18:47:36.662Z,85.61
2018-03-19T19:02:36.030Z,85.22
2018-03-19T19:17:36.887Z,84.75
2018-03-19T19:32:34.843Z,83.85
2018-03-19T19:47:37.957Z,82.89
2018-03-19T20:02:37.434Z,82.05
2018-03-19T20:17:34.909Z,82.05
2018-03-19T20:32:34.702Z,82.16
2018-03-19T20:47:34.728Z,82.08
2018-03-19T21:02:58.817Z,82.82
2018-03-19T21:17:34.384Z,82.91
2018-03-19T21:32:39.386Z,82.75
2018-03-19T21:47:39.140Z,81.78
2018-03-19T22:02:34.685Z,79.93
2018-03-19T22:17:34.661Z,79.00
2018-03-19T22:32:34.595Z,77.72
2018-03-19T22:47:34.600Z,78.04
2018-03-19T23:02:35.031Z,78.53
2018-03-19T23:17:34.885Z,78.19
2018-03-19T23:32:34.890Z,77.54
2018-03-19T23:47:34.855Z,78.02
